createdAt,value
2023-04-18T00:00:15.363Z,1.35
2023-04-18T00:02:44.262Z,1.75
2023-04-18T00:05:18.409Z,1.45
2023-04-18T00:07:46.209Z,1.45
2023-04-18T00:10:13.929Z,1.27
2023-04-18T00:12:41.131Z,1.20
2023-04-18T00:15:09.546Z,1.30
2023-04-18T00:17:38.590Z,1.77
2023-04-18T00:20:10.105Z,1.52
2023-04-18T00:22:43.020Z,1.27
2023-04-18T00:25:11.618Z,1.25
2023-04-18T00:27:39.177Z,1.52
2023-04-18T00:30:06.872Z,1.40
2023-04-18T00:32:37.079Z,1.45
2023-04-18T00:35:05.025Z,1.70
2023-04-18T00:37:32.503Z,1.40
2023-04-18T00:39:59.364Z,1.77
2023-04-18T00:42:28.137Z,1.83
2023-04-18T00:44:55.404Z,1.55
2023-04-18T00:47:22.403Z,1.50
2023-04-18T00:49:49.890Z,1.48
2023-04-18T00:52:19.190Z,1.58
2023-04-18T00:54:49.694Z,1.55
2023-04-18T00:57:16.787Z,1.60
2023-04-18T00:59:44.069Z,1.00
2023-04-18T01:02:11.519Z,1.38
2023-04-18T01:04:43.643Z,1.75
2023-04-18T01:07:11.857Z,1.60
2023-04-18T01:09:39.701Z,1.40
2023-04-18T01:12:09.029Z,1.58
2023-04-18T01:14:36.248Z,1.48
2023-04-18T01:17:03.778Z,1.35
2023-04-18T01:19:30.761Z,1.80
2023-04-18T01:21:57.687Z,1.92
2023-04-18T01:24:26.818Z,1.45
2023-04-18T01:26:53.992Z,1.70
2023-04-18T01:29:21.332Z,1.45
2023-04-18T01:31:50.297Z,1.40
2023-04-18T01:34:20.817Z,1.65
2023-04-18T01:36:48.430Z,1.70
2023-04-18T01:39:15.818Z,1.83
2023-04-18T01:41:43.126Z,1.67
2023-04-18T01:44:10.506Z,1.42
2023-04-18T01:46:38.072Z,2.15
2023-04-18T01:49:06.300Z,1.45
2023-04-18T01:51:33.528Z,1.75
2023-04-18T01:54:01.013Z,1.52
2023-04-18T01:56:28.420Z,1.52
2023-04-18T01:58:59.122Z,1.48
2023-04-18T02:01:26.527Z,1.65
2023-04-18T02:03:54.271Z,1.98
2023-04-18T02:06:22.483Z,1.55
2023-04-18T02:08:50.590Z,1.60
2023-04-18T02:11:17.480Z,1.38
2023-04-18T02:13:44.698Z,1.58
2023-04-18T02:16:13.664Z,1.45
2023-04-18T02:18:43.658Z,1.80
2023-04-18T02:21:11.347Z,1.88
2023-04-18T02:23:38.803Z,1.75
2023-04-18T02:26:06.089Z,1.92
2023-04-18T02:28:33.224Z,1.40
2023-04-18T02:31:03.539Z,1.67
2023-04-18T02:33:30.903Z,1.95
2023-04-18T02:35:58.700Z,2.15
2023-04-18T02:38:26.211Z,1.88
2023-04-18T02:40:53.497Z,1.83
2023-04-18T02:43:21.223Z,1.80
2023-04-18T02:45:48.560Z,1.75
2023-04-18T02:48:15.718Z,2.00
2023-04-18T02:50:45.205Z,1.80
2023-04-18T02:53:12.877Z,1.77
2023-04-18T02:55:51.702Z,1.58
2023-04-18T02:58:20.424Z,1.60
2023-04-18T03:00:54.036Z,1.77
2023-04-18T03:03:41.787Z,1.60
2023-04-18T03:06:22.920Z,1.60
2023-04-18T03:08:50.579Z,1.92
2023-04-18T03:11:17.598Z,1.70
2023-04-18T03:13:45.944Z,1.70
2023-04-18T03:16:14.405Z,1.77
2023-04-18T03:18:42.459Z,1.90
2023-04-18T03:21:09.760Z,1.70
2023-04-18T03:23:40.156Z,1.77
2023-04-18T03:26:08.356Z,1.80
2023-04-18T03:28:38.125Z,1.90
2023-04-18T03:31:05.473Z,2.28
2023-04-18T03:33:35.235Z,1.63
2023-04-18T03:36:09.327Z,1.48
2023-04-18T03:38:40.729Z,1.83
2023-04-18T03:41:09.355Z,2.33
2023-04-18T03:43:38.283Z,2.10
2023-04-18T03:46:06.277Z,1.98
2023-04-18T03:48:37.397Z,1.88
2023-04-18T03:51:09.301Z,1.88
2023-04-18T03:53:37.149Z,1.70
2023-04-18T03:56:04.526Z,2.17
2023-04-18T03:58:52.565Z,2.15
2023-04-18T04:01:21.807Z,2.13
2023-04-18T04:03:50.646Z,1.77
2023-04-18T04:06:17.986Z,1.77
2023-04-18T04:08:45.714Z,1.70
2023-04-18T04:11:14.602Z,1.85
2023-04-18T04:13:42.840Z,1.98
2023-04-18T04:16:13.258Z,2.05
2023-04-18T04:18:40.797Z,1.80
2023-04-18T04:21:07.959Z,1.60
2023-04-18T04:23:49.511Z,1.70
2023-04-18T04:26:47.118Z,2.05
2023-04-18T04:29:17.981Z,1.52
2023-04-18T04:31:47.337Z,2.00
2023-04-18T04:34:20.772Z,1.95
2023-04-18T04:36:48.975Z,1.80
2023-04-18T04:39:17.745Z,1.77
2023-04-18T04:42:04.785Z,2.13
2023-04-18T04:44:44.478Z,2.20
2023-04-18T04:47:12.455Z,2.67
2023-04-18T04:49:40.385Z,2.50
2023-04-18T04:52:07.598Z,2.55
2023-04-18T04:54:35.764Z,2.83
2023-04-18T04:57:04.706Z,1.80
2023-04-18T04:59:31.620Z,2.08
2023-04-18T05:01:58.646Z,1.77
2023-04-18T05:04:26.051Z,2.08
2023-04-18T05:06:53.596Z,2.40
2023-04-18T05:09:21.026Z,2.40
2023-04-18T05:11:49.851Z,2.30
2023-04-18T05:14:17.779Z,2.72
2023-04-18T05:16:44.670Z,2.00
2023-04-18T05:19:12.152Z,2.00
2023-04-18T05:21:39.816Z,2.08
2023-04-18T05:24:07.277Z,2.03
2023-04-18T05:26:34.761Z,2.60
2023-04-18T05:29:02.013Z,1.95
2023-04-18T05:31:29.140Z,2.20
2023-04-18T05:33:56.583Z,2.20
2023-04-18T05:36:24.051Z,2.10
2023-04-18T05:38:52.189Z,2.08
2023-04-18T05:41:19.441Z,2.25
2023-04-18T05:43:54.245Z,2.30
2023-04-18T05:46:29.548Z,2.67
2023-04-18T05:48:57.303Z,2.28
2023-04-18T05:51:24.947Z,2.20
2023-04-18T05:53:52.232Z,2.28
2023-04-18T05:56:19.570Z,2.67
2023-04-18T05:58:48.145Z,2.78
2023-04-18T06:01:16.434Z,2.83
2023-04-18T06:03:43.842Z,2.58
2023-04-18T06:06:12.156Z,2.25
2023-04-18T06:08:40.035Z,2.00
2023-04-18T06:11:07.222Z,2.65
2023-04-18T06:13:34.129Z,2.13
2023-04-18T06:16:01.763Z,2.08
2023-04-18T06:18:29.245Z,2.25
2023-04-18T06:20:56.476Z,2.50
2023-04-18T06:23:23.703Z,1.98
2023-04-18T06:25:50.959Z,2.10
2023-04-18T06:28:18.253Z,2.20
2023-04-18T06:30:46.145Z,2.17
2023-04-18T06:33:13.961Z,2.20
2023-04-18T06:35:42.330Z,2.10
2023-04-18T06:38:12.315Z,2.03
2023-04-18T06:40:39.979Z,2.00
2023-04-18T06:43:07.870Z,2.47
2023-04-18T06:45:36.641Z,2.47
2023-04-18T06:48:04.482Z,1.70
2023-04-18T06:50:32.497Z,2.45
2023-04-18T06:53:00.428Z,1.83
2023-04-18T06:55:28.865Z,2.30
2023-04-18T06:57:57.249Z,1.95
2023-04-18T07:00:31.135Z,1.95
2023-04-18T07:02:58.955Z,1.95
2023-04-18T07:05:26.546Z,2.20
2023-04-18T07:07:53.634Z,2.97
2023-04-18T07:10:21.858Z,2.00
2023-04-18T07:12:49.811Z,2.10
2023-04-18T07:15:21.236Z,2.13
2023-04-18T07:17:48.848Z,1.83
2023-04-18T07:20:16.891Z,2.10
2023-04-18T07:22:46.160Z,2.35
2023-04-18T07:25:13.922Z,1.92
2023-04-18T07:27:41.350Z,2.33
2023-04-18T07:30:12.288Z,2.15
2023-04-18T07:32:39.583Z,2.05
2023-04-18T07:35:08.351Z,2.08
2023-04-18T07:37:36.466Z,2.22
2023-04-18T07:40:05.431Z,2.03
2023-04-18T07:42:32.929Z,2.00
2023-04-18T07:45:00.300Z,2.30
2023-04-18T07:47:30.828Z,2.00
2023-04-18T07:49:59.390Z,2.30
2023-04-18T07:52:26.983Z,2.17
2023-04-18T07:54:54.300Z,2.38
2023-04-18T07:57:21.890Z,1.98
2023-04-18T07:59:49.691Z,1.88
2023-04-18T08:02:16.772Z,2.22
2023-04-18T08:04:44.427Z,2.10
2023-04-18T08:07:11.426Z,1.85
2023-04-18T08:09:38.817Z,2.15
2023-04-18T08:12:06.299Z,1.92
2023-04-18T08:14:33.781Z,1.83
2023-04-18T08:17:00.683Z,2.10
2023-04-18T08:19:28.515Z,2.35
2023-04-18T08:22:09.292Z,2.15
2023-04-18T08:24:39.192Z,2.22
2023-04-18T08:27:06.587Z,2.42
2023-04-18T08:29:34.169Z,1.90
2023-04-18T08:32:01.494Z,2.03
2023-04-18T08:34:29.746Z,1.95
2023-04-18T08:36:57.257Z,3.08
2023-04-18T08:39:25.411Z,1.92
2023-04-18T08:41:59.768Z,2.10
2023-04-18T08:44:29.836Z,1.88
2023-04-18T08:46:57.835Z,2.30
2023-04-18T08:49:25.401Z,2.40
2023-04-18T08:51:53.358Z,2.22
2023-04-18T08:54:22.817Z,1.95
2023-04-18T08:57:16.845Z,2.10
2023-04-18T08:59:48.253Z,1.70
2023-04-18T09:02:16.941Z,1.73
2023-04-18T09:04:49.533Z,2.00
2023-04-18T09:07:18.650Z,1.70
2023-04-18T09:09:51.005Z,1.65
2023-04-18T09:14:47.858Z,1.70
2023-04-18T09:17:22.096Z,1.42
2023-04-18T09:19:50.550Z,1.70
2023-04-18T09:22:18.494Z,1.80
2023-04-18T09:24:56.033Z,1.63
2023-04-18T09:27:24.515Z,1.48
2023-04-18T09:29:56.531Z,1.77
2023-04-18T09:32:29.555Z,1.13
2023-04-18T09:35:05.666Z,1.52
2023-04-18T09:37:33.341Z,1.40
2023-04-18T09:40:00.895Z,1.90
2023-04-18T09:42:37.636Z,1.45
2023-04-18T09:45:07.449Z,1.42
2023-04-18T09:47:36.784Z,1.35
2023-04-18T09:50:08.734Z,1.02
2023-04-18T09:52:38.891Z,1.70
2023-04-18T09:55:09.080Z,1.40
2023-04-18T09:57:39.340Z,1.30
2023-04-18T10:00:23.518Z,1.58
2023-04-18T10:03:10.088Z,1.23
2023-04-18T10:05:40.315Z,1.45
2023-04-18T10:08:09.800Z,1.30
2023-04-18T10:10:40.904Z,1.35
2023-04-18T10:13:11.589Z,1.05
2023-04-18T10:15:40.342Z,0.95
2023-04-18T10:18:19.445Z,1.20
2023-04-18T10:20:47.290Z,1.60
2023-04-18T10:23:35.104Z,1.23
2023-04-18T10:26:03.550Z,1.10
2023-04-18T10:28:49.797Z,1.40
2023-04-18T10:31:17.184Z,1.45
2023-04-18T10:34:03.985Z,1.38
2023-04-18T10:36:33.576Z,1.33
2023-04-18T10:39:03.290Z,2.00
2023-04-18T10:41:32.168Z,1.95
2023-04-18T10:44:14.896Z,3.70
2023-04-18T10:47:04.017Z,3.03
2023-04-18T10:49:33.677Z,1.20
2023-04-18T10:52:02.476Z,1.17
2023-04-18T10:54:30.894Z,2.00
2023-04-18T10:57:00.427Z,1.42
2023-04-18T10:59:29.694Z,1.52
2023-04-18T11:02:04.884Z,1.75
2023-04-18T11:04:32.007Z,1.50
2023-04-18T11:07:00.298Z,1.20
2023-04-18T11:09:27.356Z,1.20
2023-04-18T11:12:12.203Z,1.42
2023-04-18T11:14:40.726Z,1.35
2023-04-18T11:17:21.186Z,1.42
2023-04-18T11:19:49.099Z,1.25
2023-04-18T11:22:18.206Z,1.13
2023-04-18T11:24:46.247Z,1.40
2023-04-18T11:27:14.742Z,1.10
2023-04-18T11:29:42.232Z,1.25
2023-04-18T11:32:10.023Z,1.30
2023-04-18T11:34:37.735Z,1.70
2023-04-18T11:37:08.793Z,1.45
2023-04-18T11:39:42.662Z,1.58
2023-04-18T11:42:10.353Z,1.40
2023-04-18T11:44:40.084Z,1.30
2023-04-18T11:47:24.310Z,1.10
2023-04-18T11:50:00.564Z,1.40
2023-04-18T11:52:29.527Z,1.05
2023-04-18T11:55:10.604Z,1.20
2023-04-18T11:57:38.178Z,1.45
2023-04-18T12:00:07.826Z,1.23
2023-04-18T12:02:43.146Z,1.55
2023-04-18T12:05:12.551Z,1.70
2023-04-18T12:07:42.484Z,0.95
2023-04-18T12:10:23.768Z,1.33
2023-04-18T12:12:53.081Z,1.35
2023-04-18T12:15:23.852Z,1.30
2023-04-18T12:17:53.876Z,1.20
2023-04-18T12:20:25.086Z,1.50
2023-04-18T12:22:54.538Z,0.95
2023-04-18T12:25:26.963Z,1.25
2023-04-18T12:28:00.618Z,1.40
2023-04-18T12:30:36.853Z,1.42
2023-04-18T12:33:05.112Z,1.70
2023-04-18T12:35:32.392Z,1.20
2023-04-18T12:38:02.061Z,1.90
2023-04-18T12:40:30.255Z,1.30
2023-04-18T12:42:57.867Z,1.75
2023-04-18T12:45:25.585Z,1.70
2023-04-18T12:47:53.795Z,1.92
2023-04-18T12:50:23.260Z,1.88
2023-04-18T12:52:52.799Z,1.60
2023-04-18T12:55:20.199Z,2.40
2023-04-18T12:57:47.641Z,2.15
2023-04-18T13:00:14.915Z,1.70
2023-04-18T13:02:44.442Z,1.75
2023-04-18T13:05:14.994Z,1.73
2023-04-18T13:07:42.910Z,1.85
2023-04-18T13:10:15.250Z,1.80
2023-04-18T13:12:42.263Z,1.77
2023-04-18T13:15:10.296Z,1.70
2023-04-18T13:17:39.569Z,1.40
2023-04-18T13:20:10.815Z,1.65
2023-04-18T13:22:38.200Z,2.10
2023-04-18T13:25:07.505Z,1.65
2023-04-18T13:27:35.469Z,1.80
2023-04-18T13:30:03.750Z,1.80
2023-04-18T13:32:31.140Z,1.83
2023-04-18T13:34:58.229Z,1.50
2023-04-18T13:37:26.539Z,2.05
2023-04-18T13:39:53.935Z,2.00
2023-04-18T13:42:21.199Z,2.10
2023-04-18T13:44:48.282Z,2.05
2023-04-18T13:47:16.923Z,2.00
2023-04-18T13:49:43.732Z,2.42
2023-04-18T13:52:10.772Z,1.67
2023-04-18T13:54:38.923Z,1.90
2023-04-18T13:57:11.688Z,1.75
2023-04-18T14:02:10.589Z,1.67
2023-04-18T14:04:38.339Z,1.65
2023-04-18T14:07:06.482Z,1.50
2023-04-18T14:09:33.868Z,1.95
2023-04-18T14:12:02.432Z,1.73
2023-04-18T14:14:30.122Z,1.45
2023-04-18T14:16:57.510Z,1.95
2023-04-18T14:19:25.153Z,1.75
2023-04-18T14:21:52.518Z,2.10
2023-04-18T14:24:19.724Z,1.80
2023-04-18T14:26:46.756Z,1.70
2023-04-18T14:29:14.576Z,1.63
2023-04-18T14:31:42.249Z,1.63
2023-04-18T14:34:10.038Z,2.00
2023-04-18T14:36:37.442Z,2.50
2023-04-18T14:39:05.813Z,2.20
2023-04-18T14:41:33.437Z,1.73
2023-04-18T14:44:01.041Z,2.08
2023-04-18T14:46:29.590Z,1.83
2023-04-18T14:48:57.742Z,1.88
2023-04-18T14:51:24.579Z,2.67
2023-04-18T14:53:51.903Z,4.50
2023-04-18T14:56:21.644Z,5.07
2023-04-18T14:58:49.229Z,3.95
2023-04-18T15:01:19.709Z,3.58
2023-04-18T15:03:47.162Z,3.78
2023-04-18T15:06:14.560Z,3.58
2023-04-18T15:08:44.329Z,2.50
2023-04-18T15:11:11.607Z,2.65
2023-04-18T15:13:40.093Z,2.60
2023-04-18T15:16:07.487Z,2.50
2023-04-18T15:18:35.200Z,2.85
2023-04-18T15:21:02.754Z,2.40
2023-04-18T15:23:29.792Z,2.33
2023-04-18T15:25:56.912Z,2.15
2023-04-18T15:28:24.270Z,2.15
2023-04-18T15:30:51.738Z,1.80
2023-04-18T15:33:20.799Z,2.30
2023-04-18T15:35:48.566Z,1.85
2023-04-18T15:38:16.142Z,2.13
2023-04-18T15:40:46.258Z,2.47
2023-04-18T15:43:16.339Z,2.22
2023-04-18T15:45:44.963Z,1.85
2023-04-18T15:48:14.148Z,2.10
2023-04-18T15:50:42.655Z,2.22
2023-04-18T15:53:09.975Z,1.77
2023-04-18T15:55:37.491Z,1.88
2023-04-18T15:58:04.816Z,2.20
2023-04-18T16:00:32.568Z,1.98
2023-04-18T16:03:00.064Z,2.17
2023-04-18T16:05:27.344Z,2.08
2023-04-18T16:07:56.479Z,2.60
2023-04-18T16:10:24.145Z,2.25
2023-04-18T16:12:51.031Z,2.10
2023-04-18T16:15:18.348Z,2.22
2023-04-18T16:17:45.777Z,1.70
2023-04-18T16:20:13.328Z,1.77
2023-04-18T16:22:40.745Z,2.25
2023-04-18T16:25:08.774Z,1.95
2023-04-18T16:27:36.449Z,2.63
2023-04-18T16:30:04.337Z,2.55
2023-04-18T16:32:31.845Z,3.85
2023-04-18T16:34:59.013Z,3.60
2023-04-18T16:37:26.106Z,2.83
2023-04-18T16:39:53.280Z,2.22
2023-04-18T16:42:20.876Z,1.88
2023-04-18T16:44:48.612Z,1.90
2023-04-18T16:47:17.480Z,2.08
2023-04-18T16:49:47.259Z,2.00
2023-04-18T16:52:15.340Z,1.75
2023-04-18T16:54:42.644Z,1.90
2023-04-18T16:57:09.679Z,2.08
2023-04-18T16:59:36.547Z,2.25
2023-04-18T17:02:03.820Z,2.85
2023-04-18T17:04:31.384Z,3.78
2023-04-18T17:06:58.837Z,2.60
2023-04-18T17:09:26.546Z,2.20
2023-04-18T17:11:53.702Z,2.08
2023-04-18T17:14:21.210Z,2.20
2023-04-18T17:16:51.415Z,2.30
2023-04-18T17:19:20.744Z,2.42
2023-04-18T17:21:49.350Z,2.17
2023-04-18T17:24:18.928Z,1.85
2023-04-18T17:26:46.368Z,1.65
2023-04-18T17:29:13.812Z,1.77
2023-04-18T17:31:41.414Z,2.13
2023-04-18T17:34:08.400Z,2.15
2023-04-18T17:36:35.875Z,2.13
2023-04-18T17:39:06.766Z,2.28
2023-04-18T17:41:39.057Z,2.85
2023-04-18T17:44:08.281Z,2.35
2023-04-18T17:46:35.484Z,2.60
2023-04-18T17:49:02.786Z,2.70
2023-04-18T17:51:30.015Z,2.70
2023-04-18T17:53:57.291Z,2.85
2023-04-18T17:56:24.484Z,2.40
2023-04-18T17:58:51.740Z,2.58
2023-04-18T18:01:21.347Z,2.33
2023-04-18T18:03:49.170Z,2.50
2023-04-18T18:06:16.592Z,2.63
2023-04-18T18:08:43.812Z,2.65
2023-04-18T18:11:10.838Z,2.40
2023-04-18T18:13:39.164Z,2.50
2023-04-18T18:16:07.312Z,3.97
2023-04-18T18:18:35.012Z,5.70
2023-04-18T18:21:02.215Z,5.70
2023-04-18T18:23:29.078Z,5.72
2023-04-18T18:25:55.948Z,4.90
2023-04-18T18:28:22.835Z,4.88
2023-04-18T18:30:50.193Z,4.57
2023-04-18T18:33:17.249Z,4.70
2023-04-18T18:35:44.123Z,3.40
2023-04-18T18:38:11.062Z,4.30
2023-04-18T18:40:38.345Z,3.30
2023-04-18T18:43:05.340Z,3.65
2023-04-18T18:45:32.539Z,4.18
2023-04-18T18:48:00.118Z,3.47
2023-04-18T18:50:27.025Z,4.07
2023-04-18T18:52:54.363Z,3.47
2023-04-18T18:55:21.885Z,4.03
2023-04-18T18:57:48.956Z,3.88
2023-04-18T19:00:16.468Z,4.13
2023-04-18T19:02:43.492Z,4.72
2023-04-18T19:05:13.084Z,4.22
2023-04-18T19:07:43.097Z,3.88
2023-04-18T19:10:10.815Z,3.33
2023-04-18T19:12:38.566Z,3.63
2023-04-18T19:15:06.663Z,3.13
2023-04-18T19:17:34.229Z,2.78
2023-04-18T19:20:01.751Z,2.95
2023-04-18T19:22:29.953Z,2.50
2023-04-18T19:24:57.891Z,2.83
2023-04-18T19:27:25.162Z,2.95
2023-04-18T19:29:52.454Z,4.00
2023-04-18T19:32:19.563Z,3.58
2023-04-18T19:34:48.677Z,3.13
2023-04-18T19:37:15.436Z,2.92
2023-04-18T19:39:42.869Z,2.78
2023-04-18T19:42:10.741Z,2.60
2023-04-18T19:44:40.439Z,3.03
2023-04-18T19:47:08.137Z,5.60
2023-04-18T19:49:35.372Z,4.70
2023-04-18T19:52:02.454Z,4.15
2023-04-18T19:54:33.532Z,4.22
2023-04-18T19:57:01.656Z,4.07
2023-04-18T19:59:28.698Z,3.80
2023-04-18T20:01:56.738Z,3.30
2023-04-18T20:04:26.054Z,4.18
2023-04-18T20:06:56.648Z,4.45
2023-04-18T20:09:23.488Z,4.78
2023-04-18T20:11:50.896Z,6.03
2023-04-18T20:14:18.206Z,5.10
2023-04-18T20:16:46.910Z,4.97
2023-04-18T20:19:14.880Z,5.28
2023-04-18T20:21:42.324Z,4.70
2023-04-18T20:24:10.329Z,4.43
2023-04-18T20:26:39.718Z,4.53
2023-04-18T20:29:06.969Z,3.85
2023-04-18T20:31:35.286Z,4.18
2023-04-18T20:34:02.839Z,3.60
2023-04-18T20:36:31.243Z,3.28
2023-04-18T20:38:57.992Z,3.72
2023-04-18T20:41:27.047Z,4.38
2023-04-18T20:43:54.240Z,3.58
2023-04-18T20:46:21.958Z,3.70
2023-04-18T20:48:49.515Z,6.43
2023-04-18T20:51:16.804Z,7.68
2023-04-18T20:53:44.313Z,7.28
2023-04-18T20:56:11.502Z,6.03
2023-04-18T20:58:38.412Z,5.50
2023-04-18T21:01:05.729Z,4.25
2023-04-18T21:03:33.044Z,3.90
2023-04-18T21:06:00.545Z,3.58
2023-04-18T21:08:27.532Z,3.58
2023-04-18T21:10:54.303Z,3.55
2023-04-18T21:13:21.257Z,2.70
2023-04-18T21:15:51.023Z,4.70
2023-04-18T21:18:19.334Z,5.13
2023-04-18T21:20:46.079Z,3.75
2023-04-18T21:23:13.264Z,3.40
2023-04-18T21:25:41.019Z,3.38
2023-04-18T21:28:08.911Z,4.20
2023-04-18T21:30:36.552Z,3.92
2023-04-18T21:33:03.987Z,6.78
2023-04-18T21:35:31.503Z,6.07
2023-04-18T21:37:58.684Z,5.35
2023-04-18T21:40:27.020Z,5.68
2023-04-18T21:42:54.360Z,5.13
2023-04-18T21:45:21.693Z,4.07
2023-04-18T21:47:48.866Z,4.03
2023-04-18T21:50:16.170Z,8.50
2023-04-18T21:52:43.325Z,6.47
2023-04-18T21:55:10.608Z,4.03
2023-04-18T21:57:38.145Z,3.63
2023-04-18T22:00:08.458Z,4.85
2023-04-18T22:02:37.216Z,5.93
2023-04-18T22:05:04.473Z,4.55
2023-04-18T22:07:32.465Z,3.50
2023-04-18T22:10:00.163Z,3.38
2023-04-18T22:12:27.167Z,3.08
2023-04-18T22:14:54.979Z,3.47
2023-04-18T22:17:22.687Z,2.95
2023-04-18T22:19:50.781Z,3.17
2023-04-18T22:22:19.275Z,2.75
2023-04-18T22:24:47.699Z,2.88
2023-04-18T22:27:15.027Z,2.97
2023-04-18T22:29:42.262Z,2.80
2023-04-18T22:32:09.459Z,2.60
2023-04-18T22:34:36.750Z,2.65
2023-04-18T22:37:03.777Z,2.78
2023-04-18T22:39:31.580Z,3.55
2023-04-18T22:41:58.980Z,3.20
2023-04-18T22:44:26.554Z,5.90
2023-04-18T22:46:56.619Z,4.97
2023-04-18T22:49:23.834Z,3.22
2023-04-18T22:51:54.645Z,2.70
2023-04-18T22:54:22.029Z,4.40
2023-04-18T22:56:50.824Z,4.13
2023-04-18T22:59:18.055Z,2.95
2023-04-18T23:01:45.432Z,2.78
2023-04-18T23:04:12.814Z,3.67
2023-04-18T23:06:39.882Z,3.92
2023-04-18T23:09:09.430Z,3.60
2023-04-18T23:11:36.517Z,3.65
2023-04-18T23:14:03.404Z,3.13
2023-04-18T23:16:30.529Z,3.00
2023-04-18T23:18:57.977Z,2.67
2023-04-18T23:21:25.011Z,2.85
2023-04-18T23:23:52.163Z,3.15
2023-04-18T23:26:19.444Z,2.92
2023-04-18T23:28:46.678Z,3.03
2023-04-18T23:31:13.707Z,3.22
2023-04-18T23:33:41.213Z,3.30
2023-04-18T23:36:08.679Z,5.78
2023-04-18T23:38:37.351Z,3.78
2023-04-18T23:41:04.469Z,4.07
2023-04-18T23:43:31.645Z,3.67
2023-04-18T23:45:58.903Z,3.03
2023-04-18T23:48:26.094Z,3.15
2023-04-18T23:50:54.060Z,3.70
2023-04-18T23:53:22.658Z,3.15
2023-04-18T23:55:51.090Z,2.40
2023-04-18T23:58:20.302Z,2.40
